Meteo Giornale » Osservazioni meteo Stati Uniti (USA) » Laramie
ore: 23:53 - Osservazioni Meteo Laramie
Lat. 41° 18' N Lon. 105° 40' W Alt. 2218 metri s.l.m.
13 °C
Pioggia
Temp. 24 Ore
11 °C
24 °C
Nord/NOvest
11.1 Km/h
Dew point 11 °C
Umidità 87 %
Visibilità 10 Km
Il sole sorge alle ore 06:29
Il sole tramonta alle ore 19:35
| Data e Ora | Cielo e Fenomeni | T °C | DP °C | Um. % | Pres. hPa | Vis. km | Vento km/h | |
|---|---|---|---|---|---|---|---|---|
| Ieri h: 23:53 | Pioggia | 13 | 11 | 87 | 1024 | 10 | N/NO 11.1 | |
| Ieri h: 22:53 | Pioggia | 13 | 12 | 93 | 1026 | 10 | N 0 | |
| Ieri h: 21:53 | Pioggia | 14 | 12 | 87 | 1026 | 10 | O 11.1 | |
| Ieri h: 20:53 | Pioggia | 14 | 11 | 82 | 1026 | 10 | S 24 | |
| Ieri h: 19:53 | Coperto | 19 | 7 | 45 | 1024 | 10 | S 35.2 | |
| Ieri h: 18:53 | Coperto | 21 | 4 | 32 | 1024 | 10 | S 9.3 | |
| Ieri h: 17:53 | Nuvoloso | 23 | 2 | 25 | 1024 | 10 | O 11.1 | |
| Ieri h: 16:53 | Sereno | 24 | 2 | 23 | 1023 | 10 | O/NO 16.7 | |
| Ieri h: 15:53 | Sereno | 23 | 2 | 25 | 1024 | 10 | O/NO 16.7 | |
| Ieri h: 14:53 | Sereno | 24 | 2 | 23 | 1024 | 10 | O 25.9 | |
| Ieri h: 13:53 | Sereno | 23 | 2 | 25 | 1025 | 10 | O 27.8 | |
| Ieri h: 12:53 | Sereno | 23 | 3 | 26 | 1025 | 10 | O/SO 22.2 | |
| Ieri h: 11:53 | Sereno | 21 | 4 | 32 | 1026 | 10 | O 20.3 | |
| Ieri h: 10:53 | Sereno | 19 | 5 | 39 | 1026 | 10 | O/SO 11.1 | |
| Ieri h: 09:53 | Sereno | 18 | 5 | 42 | 1026 | 10 | SO 20.3 | |
| Ieri h: 08:53 | Sereno | 14 | 6 | 58 | 1026 | 10 | N 5.5 | |
| Ieri h: 07:53 | Sereno | 14 | 5 | 54 | 1025 | 10 | SO 16.7 | |
| Ieri h: 06:53 | Sereno | 11 | 4 | 61 | 1025 | 10 | S/SO 16.7 | |
| Ieri h: 05:53 | Sereno | 11 | 5 | 66 | 1025 | 10 | SO 9.3 | |
| Ieri h: 04:53 | Sereno | 11 | 4 | 61 | 1024 | 10 | O/SO 13 | |
| Ieri h: 03:53 | Sereno | 13 | 4 | 54 | 1024 | 10 | S/SO 14.8 | |
| Ieri h: 02:53 | Sereno | 11 | 4 | 61 | 1023 | 10 | S 14.8 | |
| Ieri h: 01:53 | Sereno | 12 | 5 | 62 | 1023 | 10 | S 9.3 | |
| Ieri h: 00:53 | Sereno | 14 | 5 | 54 | 1023 | 10 | SO 35.2 | |



